METAR Data
IDs: Format: Raw Decoded Include TAF

Data at: 1817 UTC 25 Mar 2019

KMRF 251756Z AUTO 05009G18KT 10SM CLR 23/M10 A3029 RMK AO2 SLP217 T02281100 10233 20033 50003
KMRF 251656Z AUTO 05014KT 10SM CLR 23/M09 A3029 RMK AO2 SLP218 T02281094
KMRF 251556Z AUTO 03012G18KT 10SM CLR 21/M09 A3029 RMK AO2 SLP218 T02061094
KMRF 251456Z AUTO 01010KT 10SM CLR 19/M09 A3028 RMK AO2 SLP214 T01891094 51014
KMRF 251356Z AUTO 02003KT 10SM CLR 13/M09 A3026 RMK AO2 SLP214 T01331094
KMRF 251256Z AUTO 36004KT 10SM CLR 06/M09 A3025 RMK AO2 SLP208 T00611094
KMRF 251156Z AUTO 33007KT 10SM CLR 05/M10 A3023 RMK AO2 SLP200 T00501100 10094 20039 53002
KMRF 251056Z AUTO 35008KT 10SM CLR 04/M09 A3022 RMK AO2 SLP197 T00391094
KMRF 250956Z AUTO VRB04KT 10SM CLR 05/M09 A3022 RMK AO2 SLP196 T00501094
KMRF 250856Z AUTO 35004KT 10SM CLR 05/M09 A3022 RMK AO2 SLP196 T00501089 58002
KMRF 250756Z AUTO 35007KT 10SM CLR 06/M08 A3023 RMK AO2 SLP201 T00561083
KMRF 250656Z AUTO 36005KT 10SM CLR 06/M09 A3023 RMK AO2 SLP201 T00611089 402500006
KMRF 250556Z AUTO 34006KT 10SM CLR 08/M09 A3023 RMK AO2 SLP198 T00781089 10233 20078 50010
KMRF 250456Z AUTO 33007KT 10SM CLR 08/M09 A3023 RMK AO2 SLP202 T00781089
KMRF 250356Z AUTO 34011KT 10SM CLR 10/M09 A3022 RMK AO2 SLP196 T01001089
KMRF 250256Z AUTO 36005KT 10SM CLR 12/M09 A3020 RMK AO2 SLP191 T01221089 53016
KMRF 250156Z AUTO 34007KT 10SM CLR 14/M09 A3017 RMK AO2 SLP193 T01391094
KMRF 250056Z AUTO 30005KT 10SM CLR 22/M09 A3016 RMK AO2 SLP186 T02171089
KMRF 242356Z AUTO 27011KT 10SM CLR 23/M09 A3014 RMK AO2 SLP176 T02331094 10250 20222 53002
KMRF 242256Z AUTO 25011G20KT 10SM CLR 24/M11 A3013 RMK AO2 SLP165 T02441111
KMRF 242156Z AUTO 23011G17KT 10SM CLR 24/M09 A3013 RMK AO2 SLP166 T02441094
KMRF 242056Z AUTO 30012G16KT 10SM CLR 25/M07 A3014 RMK AO2 SLP163 T02501067 58021
KMRF 241956Z AUTO 21009G19KT 10SM CLR 23/M06 A3016 RMK AO2 PK WND 24028/1858 WSHFT 1938 SLP178 T02331061
KMRF 241756Z AUTO 25012G16KT 10SM CLR 23/M06 A3021 RMK AO2 SLP193 T02281056 10228 20006 50000
KMRF 241656Z AUTO VRB04KT 10SM CLR 21/M06 A3021 RMK AO2 SLP198 T02061056
KMRF 241556Z AUTO 28010KT 10SM CLR 20/M05 A3021 RMK AO2 SLP197 T02001050
KMRF 241456Z AUTO 10SM CLR 15/M07 A3021 RMK AO2 SLP197 T01501067 53018 $
KMRF 241356Z AUTO 00000KT 10SM CLR 07/M07 A3018 RMK AO2 SLP195 T00671067
KMRF 241256Z AUTO 01006KT 10SM CLR 01/M08 A3016 RMK AO2 SLP191 T00061083 FZRANO
KMRF 241156Z AUTO 35003KT 10SM CLR 02/M08 A3015 RMK AO2 SLP178 T00221078 10094 20022 53002 FZRANO
KMRF 241056Z AUTO 34006KT 10SM CLR 04/M08 A3013 RMK AO2 SLP171 T00391078
KMRF 240956Z AUTO 35005KT 10SM CLR 03/M08 A3014 RMK AO2 SLP176 T00281083
KMRF 240856Z AUTO 28004KT 10SM CLR 07/M09 A3014 RMK AO2 SLP170 T00721089 52001
KMRF 240756Z AUTO 24005KT 10SM CLR 05/M08 A3014 RMK AO2 SLP175 T00501078
KMRF 240656Z AUTO 34007KT 10SM CLR 06/M08 A3013 RMK AO2 SLP170 T00561078 402221011